Time,TemperatureF,DewpointF,PressureIn,WindDirection,WindDirectionDegrees,WindSpeedMPH,WindSpeedGustMPH,Humidity,HourlyPrecipIn,Conditions,Clouds,dailyrainin,SoftwareType,DateUTC
2013-03-23 00:10:00,33.8,23.0,29.85,West,263,3.0,9.0,65,0.00,,,0.00,weatherlink.com 1.10,2013-03-23 04:10:00,
2013-03-23 00:25:00,33.8,23.0,29.85,WSW,258,2.0,8.0,65,0.00,,,0.00,weatherlink.com 1.10,2013-03-23 04:25:00,
2013-03-23 00:40:00,33.7,23.0,29.85,West,269,2.0,8.0,66,0.00,,,0.00,weatherlink.com 1.10,2013-03-23 04:40:00,
2013-03-23 00:55:00,33.6,23.0,29.85,WSW,246,7.0,8.0,66,0.00,,,0.00,weatherlink.com 1.10,2013-03-23 04:55:00,
2013-03-23 01:10:00,33.5,23.0,29.85,West,262,5.0,6.0,66,0.00,,,0.00,weatherlink.com 1.10,2013-03-23 05:10:00,
2013-03-23 01:25:00,33.1,23.0,29.85,West,262,2.0,5.0,67,0.00,,,0.00,weatherlink.com 1.10,2013-03-23 05:25:00,
2013-03-23 01:40:00,32.9,23.0,29.85,WNW,292,0.0,7.0,67,0.00,,,0.00,weatherlink.com 1.10,2013-03-23 05:40:00,
2013-03-23 01:55:00,32.7,23.0,29.85,WNW,287,0.0,7.0,67,0.00,,,0.00,weatherlink.com 1.10,2013-03-23 05:55:00,
2013-03-23 02:10:00,32.7,23.0,29.85,WNW,292,2.0,8.0,67,0.00,,,0.00,weatherlink.com 1.10,2013-03-23 06:10:00,
2013-03-23 02:25:00,32.8,23.0,29.85,West,261,6.0,8.0,67,0.00,,,0.00,weatherlink.com 1.10,2013-03-23 06:25:00,
2013-03-23 02:40:00,32.8,23.0,29.85,West,280,1.0,10.0,67,0.00,,,0.00,weatherlink.com 1.10,2013-03-23 06:40:00,
2013-03-23 02:55:00,32.5,23.0,29.84,WSW,258,3.0,7.0,67,0.00,,,0.00,weatherlink.com 1.10,2013-03-23 06:55:00,
2013-03-23 03:10:00,32.3,22.0,29.84,WNW,292,3.0,6.0,67,0.00,,,0.00,weatherlink.com 1.10,2013-03-23 07:10:00,
2013-03-23 03:26:00,32.1,22.0,29.84,West,275,1.0,6.0,67,0.00,,,0.00,weatherlink.com 1.10,2013-03-23 07:26:00,
2013-03-23 03:41:00,31.7,22.0,29.83,West,273,0.0,4.0,68,0.00,,,0.00,weatherlink.com 1.10,2013-03-23 07:41:00,
2013-03-23 03:56:00,31.5,22.0,29.83,West,268,4.0,5.0,69,0.00,,,0.00,weatherlink.com 1.10,2013-03-23 07:56:00,
2013-03-23 04:11:00,31.4,22.0,29.82,West,277,1.0,7.0,69,0.00,,,0.00,weatherlink.com 1.10,2013-03-23 08:11:00,
2013-03-23 04:41:00,31.5,22.0,29.82,West,267,2.0,6.0,68,0.00,,,0.00,weatherlink.com 1.10,2013-03-23 08:41:00,
2013-03-23 04:56:00,31.9,22.0,29.82,WNW,293,2.0,9.0,67,0.00,,,0.00,weatherlink.com 1.10,2013-03-23 08:56:00,
2013-03-23 05:26:00,31.8,22.0,29.83,West,281,1.0,9.0,68,0.00,,,0.00,weatherlink.com 1.10,2013-03-23 09:26:00,
2013-03-23 06:41:00,31.1,21.0,29.85,West,276,3.0,8.0,67,0.00,,,0.00,weatherlink.com 1.10,2013-03-23 10:41:00,
2013-03-23 07:11:00,31.9,21.0,29.85,West,279,3.0,15.0,64,0.00,,,0.00,weatherlink.com 1.10,2013-03-23 11:11:00,
2013-03-23 07:26:00,32.2,21.0,29.84,West,267,4.0,8.0,64,0.00,,,0.00,weatherlink.com 1.10,2013-03-23 11:26:00,
2013-03-23 07:41:00,32.6,21.0,29.85,West,273,4.0,11.0,63,0.00,,,0.00,weatherlink.com 1.10,2013-03-23 11:41:00,
2013-03-23 08:26:00,35.0,22.0,29.86,West,259,1.0,10.0,60,0.00,,,0.00,weatherlink.com 1.10,2013-03-23 12:26:00,
2013-03-23 08:41:00,35.9,22.0,29.85,West,275,3.0,9.0,58,0.00,,,0.00,weatherlink.com 1.10,2013-03-23 12:41:00,
2013-03-23 08:56:00,36.6,22.0,29.85,WNW,299,1.0,9.0,56,0.00,,,0.00,weatherlink.com 1.10,2013-03-23 12:56:00,
2013-03-23 09:11:00,37.7,23.0,29.85,NNE,13,7.0,8.0,55,0.00,,,0.00,weatherlink.com 1.10,2013-03-23 13:11:00,
2013-03-23 09:26:00,38.5,23.0,29.85,West,265,6.0,11.0,53,0.00,,,0.00,weatherlink.com 1.10,2013-03-23 13:26:00,
2013-03-23 09:41:00,39.0,23.0,29.84,SW,235,4.0,13.0,52,0.00,,,0.00,weatherlink.com 1.10,2013-03-23 13:41:00,
2013-03-23 10:26:00,41.2,23.0,29.84,WSW,242,0.0,11.0,49,0.00,,,0.00,weatherlink.com 1.10,2013-03-23 14:26:00,
2013-03-23 10:41:00,41.9,23.0,29.84,WSW,241,6.0,15.0,47,0.00,,,0.00,weatherlink.com 1.10,2013-03-23 14:41:00,
2013-03-23 11:12:00,43.0,23.0,29.83,WNW,300,3.0,14.0,46,0.00,,,0.00,weatherlink.com 1.10,2013-03-23 15:12:00,
2013-03-23 11:27:00,43.7,23.0,29.82,WNW,295,7.0,17.0,45,0.00,,,0.00,weatherlink.com 1.10,2013-03-23 15:27:00,
2013-03-23 11:42:00,44.2,23.0,29.83,NW,321,5.0,20.0,43,0.00,,,0.00,weatherlink.com 1.10,2013-03-23 15:42:00,
2013-03-23 11:57:00,44.6,23.0,29.83,WSW,237,6.0,16.0,43,0.00,,,0.00,weatherlink.com 1.10,2013-03-23 15:57:00,
2013-03-23 12:12:00,45.1,24.0,29.83,West,278,6.0,13.0,43,0.00,,,0.00,weatherlink.com 1.10,2013-03-23 16:12:00,
2013-03-23 12:27:00,46.1,23.0,29.82,West,279,5.0,17.0,40,0.00,,,0.00,weatherlink.com 1.10,2013-03-23 16:27:00,
2013-03-23 12:42:00,45.4,23.0,29.82,West,259,4.0,17.0,42,0.00,,,0.00,weatherlink.com 1.10,2013-03-23 16:42:00,
2013-03-23 12:57:00,44.7,22.0,29.82,NNE,17,7.0,16.0,40,0.00,,,0.00,weatherlink.com 1.10,2013-03-23 16:57:00,
2013-03-23 13:12:00,45.3,23.0,29.81,WSW,253,2.0,12.0,41,0.00,,,0.00,weatherlink.com 1.10,2013-03-23 17:12:00,
2013-03-23 13:42:00,45.6,22.0,29.80,West,275,4.0,11.0,40,0.00,,,0.00,weatherlink.com 1.10,2013-03-23 17:42:00,
2013-03-23 13:57:00,45.4,22.0,29.80,West,277,3.0,13.0,40,0.00,,,0.00,weatherlink.com 1.10,2013-03-23 17:57:00,
2013-03-23 14:12:00,45.3,23.0,29.79,WNW,294,3.0,17.0,42,0.00,,,0.00,weatherlink.com 1.10,2013-03-23 18:12:00,
2013-03-23 14:27:00,45.6,22.0,29.79,WNW,297,10.0,19.0,39,0.00,,,0.00,weatherlink.com 1.10,2013-03-23 18:27:00,
2013-03-23 14:42:00,45.8,22.0,29.79,WSW,252,9.0,18.0,39,0.00,,,0.00,weatherlink.com 1.10,2013-03-23 18:42:00,
2013-03-23 14:57:00,45.3,21.0,29.79,NNW,336,4.0,16.0,38,0.00,,,0.00,weatherlink.com 1.10,2013-03-23 18:57:00,
2013-03-23 15:12:00,46.0,22.0,29.78,North,5,4.0,13.0,39,0.00,,,0.00,weatherlink.com 1.10,2013-03-23 19:12:00,
2013-03-23 15:27:00,46.5,21.0,29.78,North,9,5.0,15.0,37,0.00,,,0.00,weatherlink.com 1.10,2013-03-23 19:27:00,
2013-03-23 15:42:00,46.3,22.0,29.78,WNW,298,5.0,12.0,38,0.00,,,0.00,weatherlink.com 1.10,2013-03-23 19:42:00,
2013-03-23 15:57:00,46.2,21.0,29.79,NW,312,2.0,11.0,37,0.00,,,0.00,weatherlink.com 1.10,2013-03-23 19:57:00,
2013-03-23 16:12:00,46.3,21.0,29.79,West,261,4.0,15.0,36,0.00,,,0.00,weatherlink.com 1.10,2013-03-23 20:12:00,
2013-03-23 16:27:00,45.5,20.0,29.79,WSW,242,4.0,13.0,37,0.00,,,0.00,weatherlink.com 1.10,2013-03-23 20:27:00,
2013-03-23 16:42:00,45.2,21.0,29.79,NW,304,6.0,16.0,38,0.00,,,0.00,weatherlink.com 1.10,2013-03-23 20:42:00,
2013-03-23 16:57:00,45.5,20.0,29.79,NW,316,14.0,16.0,37,0.00,,,0.00,weatherlink.com 1.10,2013-03-23 20:57:00,
2013-03-23 17:12:00,45.3,20.0,29.79,NNW,334,6.0,11.0,37,0.00,,,0.00,weatherlink.com 1.10,2013-03-23 21:12:00,
2013-03-23 17:27:00,45.3,20.0,29.79,SW,236,5.0,11.0,37,0.00,,,0.00,weatherlink.com 1.10,2013-03-23 21:27:00,
2013-03-23 17:42:00,45.1,20.0,29.80,NW,307,5.0,10.0,37,0.00,,,0.00,weatherlink.com 1.10,2013-03-23 21:42:00,
2013-03-23 17:57:00,44.9,20.0,29.80,WSW,248,2.0,16.0,37,0.00,,,0.00,weatherlink.com 1.10,2013-03-23 21:57:00,
2013-03-23 18:12:00,44.5,19.0,29.80,WSW,246,4.0,14.0,36,0.00,,,0.00,weatherlink.com 1.10,2013-03-23 22:12:00,
2013-03-23 18:27:00,44.1,19.0,29.81,WSW,252,6.0,11.0,37,0.00,,,0.00,weatherlink.com 1.10,2013-03-23 22:27:00,
2013-03-23 18:42:00,43.7,19.0,29.82,WSW,244,4.0,9.0,38,0.00,,,0.00,weatherlink.com 1.10,2013-03-23 22:42:00,
2013-03-23 18:57:00,43.1,19.0,29.82,WNW,295,3.0,13.0,38,0.00,,,0.00,weatherlink.com 1.10,2013-03-23 22:57:00,
2013-03-23 19:12:00,42.7,19.0,29.82,West,267,2.0,14.0,39,0.00,,,0.00,weatherlink.com 1.10,2013-03-23 23:12:00,
2013-03-23 19:27:00,42.3,19.0,29.83,ESE,103,5.0,12.0,39,0.00,,,0.00,weatherlink.com 1.10,2013-03-23 23:27:00,
2013-03-23 19:42:00,41.8,19.0,29.84,North,360,5.0,12.0,40,0.00,,,0.00,weatherlink.com 1.10,2013-03-23 23:42:00,
2013-03-23 19:57:00,41.6,19.0,29.84,WNW,300,2.0,10.0,41,0.00,,,0.00,weatherlink.com 1.10,2013-03-23 23:57:00,
2013-03-23 20:12:00,41.3,19.0,29.85,NW,324,0.0,7.0,41,0.00,,,0.00,weatherlink.com 1.10,2013-03-24 00:12:00,
2013-03-23 20:27:00,40.5,19.0,29.86,West,279,1.0,4.0,42,0.00,,,0.00,weatherlink.com 1.10,2013-03-24 00:27:00,
2013-03-23 20:42:00,40.3,19.0,29.86,NNW,344,2.0,7.0,42,0.00,,,0.00,weatherlink.com 1.10,2013-03-24 00:42:00,
2013-03-23 20:57:00,40.1,19.0,29.86,West,273,2.0,4.0,43,0.00,,,0.00,weatherlink.com 1.10,2013-03-24 00:57:00,
2013-03-23 21:12:00,39.6,19.0,29.86,WSW,252,0.0,4.0,44,0.00,,,0.00,weatherlink.com 1.10,2013-03-24 01:12:00,
2013-03-23 21:27:00,39.1,19.0,29.87,West,273,1.0,7.0,45,0.00,,,0.00,weatherlink.com 1.10,2013-03-24 01:27:00,
2013-03-23 21:42:00,39.2,19.0,29.87,WNW,298,1.0,8.0,45,0.00,,,0.00,weatherlink.com 1.10,2013-03-24 01:42:00,
2013-03-23 21:57:00,39.1,19.0,29.87,NW,322,1.0,9.0,45,0.00,,,0.00,weatherlink.com 1.10,2013-03-24 01:57:00,
2013-03-23 22:12:00,38.9,20.0,29.87,NNW,344,4.0,10.0,46,0.00,,,0.00,weatherlink.com 1.10,2013-03-24 02:12:00,
2013-03-23 22:27:00,38.8,20.0,29.87,NW,305,2.0,11.0,47,0.00,,,0.00,weatherlink.com 1.10,2013-03-24 02:27:00,
2013-03-23 22:42:00,38.6,20.0,29.88,West,273,3.0,11.0,47,0.00,,,0.00,weatherlink.com 1.10,2013-03-24 02:42:00,
2013-03-23 22:57:00,38.2,19.0,29.89,WSW,249,3.0,10.0,47,0.00,,,0.00,weatherlink.com 1.10,2013-03-24 02:57:00,
2013-03-23 23:12:00,37.9,19.0,29.89,West,275,2.0,8.0,47,0.00,,,0.00,weatherlink.com 1.10,2013-03-24 03:12:00,
2013-03-23 23:27:00,37.6,19.0,29.89,West,275,3.0,8.0,48,0.00,,,0.00,weatherlink.com 1.10,2013-03-24 03:27:00,
2013-03-23 23:42:00,37.3,19.0,29.89,NNW,344,2.0,7.0,48,0.00,,,0.00,weatherlink.com 1.10,2013-03-24 03:42:00,
2013-03-23 23:57:00,37.0,19.0,29.89,West,269,1.0,6.0,48,0.00,,,0.00,weatherlink.com 1.10,2013-03-24 03:57:00,